South Lyon, Michigan
Current Conditions -  °F | °C
As of 4:53 PM on Sunday 23 Nov 2014 (Local Time) from KYIP Reporting Station
Light Rain Light Rain  
Wind Chill: 54°   Ceiling: 4300
Heat Index: 54°   Visibility: 10mi
Dew Point: 44°   Wind: 8mph
Humidity: 69%   Direction: 120°ESE
Pressure: 29.66"   Gusts: NA
Location:  42.46°N, 83.65°W
Report Text: KYIP 232153Z AUTO 12007KT 10SM -RA SCT034 BKN043 OVC055 12/07 A2966 RMK AO2 RAB40 SLP042 P0000 T01220067 TSNO
Loading
Personal Weather Stations






























Interactive Weather Map New forecast layout! Learn more

10-Day Weather Forecast

Advertisements
Track Severe Weather on mobile